createdAt,value
2022-11-21T00:01:01.735Z,14.40
2022-11-21T00:06:55.164Z,15.00
2022-11-21T00:12:49.953Z,12.60
2022-11-21T00:18:44.550Z,14.23
2022-11-21T00:24:38.191Z,15.30
2022-11-21T00:30:33.185Z,14.43
2022-11-21T00:36:26.636Z,17.53
2022-11-21T00:42:20.039Z,14.90
2022-11-21T00:48:14.812Z,15.43
2022-11-21T00:54:08.260Z,16.00
2022-11-21T01:00:01.799Z,16.40
2022-11-21T01:06:02.732Z,21.03
2022-11-21T01:11:55.953Z,17.90
2022-11-21T01:17:49.361Z,16.80
2022-11-21T01:23:44.600Z,16.00
2022-11-21T01:29:37.982Z,23.43
2022-11-21T01:35:31.369Z,19.10
2022-11-21T01:41:30.359Z,18.87
2022-11-21T01:47:24.050Z,21.40
2022-11-21T01:53:17.694Z,18.80
2022-11-21T01:59:17.518Z,18.00
2022-11-21T02:05:16.098Z,19.17
2022-11-21T02:11:18.132Z,17.60
2022-11-21T02:17:12.984Z,16.00
2022-11-21T02:23:19.061Z,16.03
2022-11-21T02:29:13.864Z,15.47
2022-11-21T02:35:08.024Z,15.50
2022-11-21T02:41:08.047Z,15.23
2022-11-21T02:47:02.869Z,15.13
2022-11-21T02:52:57.421Z,15.30
2022-11-21T02:58:50.828Z,15.77
2022-11-21T03:04:45.665Z,14.73
2022-11-21T03:10:39.546Z,15.70
2022-11-21T03:16:33.006Z,12.57
2022-11-21T03:22:28.381Z,16.20
2022-11-21T03:28:21.852Z,14.43
2022-11-21T03:34:15.378Z,12.20
2022-11-21T03:40:12.100Z,13.77
2022-11-21T03:46:05.599Z,13.50
2022-11-21T03:51:59.007Z,16.67
2022-11-21T03:57:53.912Z,18.20
2022-11-21T04:03:47.572Z,20.57
2022-11-21T04:09:40.565Z,26.70
2022-11-21T04:15:34.957Z,20.10
2022-11-21T04:21:28.364Z,18.50
2022-11-21T04:27:21.829Z,23.57
2022-11-21T04:33:17.842Z,19.53
2022-11-21T04:39:11.339Z,22.90
2022-11-21T04:45:05.122Z,20.50
2022-11-21T04:51:00.054Z,19.03
2022-11-21T04:56:53.746Z,18.90
2022-11-21T05:02:46.926Z,18.63
2022-11-21T05:08:41.709Z,17.93
2022-11-21T05:14:36.190Z,18.50
2022-11-21T05:20:32.303Z,15.10
2022-11-21T05:26:30.557Z,17.00
2022-11-21T05:32:25.088Z,17.60
2022-11-21T05:38:19.317Z,17.80
2022-11-21T05:44:14.109Z,18.43
2022-11-21T05:50:08.356Z,19.73
2022-11-21T05:56:05.202Z,17.50
2022-11-21T06:02:17.339Z,17.07
2022-11-21T06:08:10.782Z,19.77
2022-11-21T06:14:04.220Z,18.43
2022-11-21T06:19:59.042Z,21.50
2022-11-21T06:25:58.151Z,22.00
2022-11-21T06:31:51.547Z,22.70
2022-11-21T06:37:50.789Z,23.40
2022-11-21T06:43:47.649Z,20.33
2022-11-21T06:49:41.089Z,25.77
2022-11-21T06:55:35.871Z,24.40
2022-11-21T07:01:29.475Z,17.60
2022-11-21T07:07:22.942Z,19.20
2022-11-21T07:13:23.761Z,21.10
2022-11-21T07:19:17.209Z,18.00
2022-11-21T07:25:11.218Z,20.80
2022-11-21T07:31:11.891Z,19.13
2022-11-21T07:37:07.501Z,17.53
2022-11-21T07:43:06.604Z,19.50
2022-11-21T07:49:04.370Z,17.10
2022-11-21T07:54:58.035Z,19.07
2022-11-21T08:00:51.447Z,16.70
2022-11-21T08:06:46.259Z,16.83
2022-11-21T08:12:39.737Z,17.63
2022-11-21T08:18:33.431Z,15.40
2022-11-21T08:24:28.056Z,14.90
2022-11-21T08:30:21.588Z,14.90
2022-11-21T08:36:15.019Z,14.17
2022-11-21T08:42:09.867Z,19.10
2022-11-21T08:48:03.786Z,17.93
2022-11-21T08:53:57.234Z,16.27
2022-11-21T08:59:52.046Z,15.60
2022-11-21T09:05:46.024Z,14.20
2022-11-21T09:11:39.487Z,14.60
2022-11-21T09:17:51.968Z,14.00
2022-11-21T09:23:46.832Z,15.20
2022-11-21T09:29:40.071Z,15.33
2022-11-21T09:35:35.081Z,14.40
2022-11-21T09:41:51.548Z,15.57
2022-11-21T09:47:48.062Z,14.50
2022-11-21T09:53:54.839Z,14.03
2022-11-21T09:59:48.478Z,13.03
2022-11-21T10:05:48.738Z,15.23
2022-11-21T10:12:07.477Z,14.20
2022-11-21T10:18:25.710Z,13.20
2022-11-21T10:24:33.227Z,12.83
2022-11-21T10:30:28.064Z,15.30
2022-11-21T10:36:29.143Z,15.90
2022-11-21T10:42:33.632Z,13.60
2022-11-21T10:48:28.453Z,13.50
2022-11-21T10:54:33.456Z,13.73
2022-11-21T11:00:27.673Z,13.57
2022-11-21T11:06:29.703Z,12.97
2022-11-21T11:12:47.380Z,15.20
2022-11-21T11:18:43.150Z,14.83
2022-11-21T11:24:38.020Z,11.87
2022-11-21T11:30:39.310Z,12.67
2022-11-21T11:36:40.584Z,12.17
2022-11-21T11:43:18.131Z,13.83
2022-11-21T11:49:20.907Z,13.00
2022-11-21T11:55:19.817Z,13.53
2022-11-21T12:01:19.814Z,12.77
2022-11-21T12:08:19.946Z,10.87
2022-11-21T12:13:35.253Z,11.50
2022-11-21T12:19:30.591Z,10.80
2022-11-21T12:25:30.030Z,11.00
2022-11-21T12:31:28.302Z,12.40
2022-11-21T12:37:34.576Z,10.30
2022-11-21T12:43:38.580Z,10.60
2022-11-21T12:49:58.136Z,10.53
2022-11-21T12:55:59.071Z,9.73
2022-11-21T13:02:00.953Z,8.90
2022-11-21T13:08:01.542Z,9.27
2022-11-21T13:14:06.157Z,8.33
2022-11-21T13:20:02.369Z,8.90
2022-11-21T13:25:55.989Z,9.17
2022-11-21T13:31:50.870Z,7.30
2022-11-21T13:38:04.428Z,7.87
2022-11-21T13:44:27.608Z,6.90
2022-11-21T13:50:35.876Z,10.00
2022-11-21T13:57:02.304Z,8.00
2022-11-21T14:03:18.131Z,5.80
2022-11-21T14:09:37.220Z,7.20
2022-11-21T14:15:39.417Z,7.47
2022-11-21T14:21:35.165Z,7.90
2022-11-21T14:27:34.445Z,7.60
2022-11-21T14:33:30.573Z,10.30
2022-11-21T14:39:38.785Z,7.73
2022-11-21T14:45:36.758Z,7.83
2022-11-21T14:51:30.713Z,6.37
2022-11-21T14:57:27.649Z,7.67
2022-11-21T15:03:24.393Z,8.43
2022-11-21T15:15:34.804Z,7.47
2022-11-21T15:21:29.941Z,8.63
2022-11-21T15:27:34.155Z,7.17
2022-11-21T15:33:27.944Z,12.27
2022-11-21T15:39:24.139Z,9.60
2022-11-21T15:45:27.248Z,10.53
2022-11-21T15:51:37.824Z,11.30
2022-11-21T15:57:37.018Z,7.37
2022-11-21T16:03:34.934Z,8.50
2022-11-21T16:09:30.026Z,8.33
2022-11-21T16:15:25.588Z,11.47
2022-11-21T16:21:19.440Z,9.03
2022-11-21T16:27:12.950Z,8.00
2022-11-21T16:33:07.414Z,8.47
2022-11-21T16:39:08.733Z,7.43
2022-11-21T16:45:02.630Z,8.10
2022-11-21T16:50:57.508Z,8.40
2022-11-21T16:56:50.936Z,8.47
2022-11-21T17:02:44.358Z,7.83
2022-11-21T17:08:39.566Z,7.10
2022-11-21T17:14:33.227Z,10.07
2022-11-21T17:20:26.889Z,9.43
2022-11-21T17:26:23.405Z,11.87
2022-11-21T17:32:17.158Z,11.43
2022-11-21T17:38:10.575Z,14.00
2022-11-21T17:44:05.462Z,15.13
2022-11-21T17:50:04.111Z,20.17
2022-11-21T17:56:00.293Z,18.40
2022-11-21T18:01:55.941Z,17.47
2022-11-21T18:07:50.352Z,19.87
2022-11-21T18:13:44.297Z,22.43
2022-11-21T18:19:39.115Z,22.27
2022-11-21T18:25:35.773Z,21.90
2022-11-21T18:31:30.368Z,18.73
2022-11-21T18:37:25.216Z,20.80
2022-11-21T18:43:18.718Z,23.50
2022-11-21T18:49:12.251Z,22.13
2022-11-21T18:55:08.173Z,21.20
2022-11-21T19:01:02.457Z,20.23
2022-11-21T19:06:56.470Z,18.40
2022-11-21T19:12:51.251Z,15.23
2022-11-21T19:18:54.999Z,15.67
2022-11-21T19:24:58.614Z,16.10
2022-11-21T19:30:53.408Z,14.93
2022-11-21T19:36:46.960Z,19.67
2022-11-21T19:42:40.643Z,13.90
2022-11-21T19:48:35.157Z,15.87
2022-11-21T19:54:28.846Z,14.40
2022-11-21T20:00:25.660Z,17.60
2022-11-21T20:06:22.957Z,14.87
2022-11-21T20:12:15.962Z,15.27
2022-11-21T20:18:09.492Z,13.73
2022-11-21T20:24:05.136Z,12.47
2022-11-21T20:29:58.539Z,12.90
2022-11-21T20:35:51.952Z,14.13
2022-11-21T20:41:47.625Z,14.87
2022-11-21T20:47:40.719Z,17.40
2022-11-21T20:53:51.404Z,13.03
2022-11-21T20:59:47.102Z,16.20
2022-11-21T21:05:40.729Z,15.93
2022-11-21T21:17:48.976Z,15.93
2022-11-21T21:23:45.607Z,16.87
2022-11-21T21:29:39.072Z,13.80
2022-11-21T21:35:34.207Z,16.63
2022-11-21T21:41:29.634Z,15.77
2022-11-21T21:47:23.586Z,16.07
2022-11-21T21:53:18.389Z,15.50
2022-11-21T21:59:11.804Z,14.20
2022-11-21T22:05:05.704Z,14.40
2022-11-21T22:11:05.211Z,13.20
2022-11-21T22:16:58.660Z,15.20
2022-11-21T22:22:56.281Z,12.93
2022-11-21T22:28:54.561Z,14.70
2022-11-21T22:34:47.964Z,12.50
2022-11-21T22:40:41.464Z,11.30
2022-11-21T22:46:36.823Z,11.93
2022-11-21T22:52:30.341Z,12.00
2022-11-21T22:58:23.863Z,11.27
2022-11-21T23:04:18.786Z,10.97
2022-11-21T23:10:13.135Z,12.27
2022-11-21T23:16:08.261Z,11.90
2022-11-21T23:22:02.698Z,12.07
2022-11-21T23:27:56.231Z,13.23
2022-11-21T23:33:49.628Z,13.13
2022-11-21T23:39:44.426Z,12.63
2022-11-21T23:45:37.904Z,11.80
2022-11-21T23:51:31.308Z,13.40
2022-11-21T23:57:26.107Z,14.03
